Time;durP1;ratioP1;P1;durP2;ratioP2;P2;SDS_P1;SDS_P2;PMS_P1;PMS_P2;Temp;Humidity;BMP_temperature;BMP_pressure;BME280_temperature;BME280_humidity;BME280_pressure;Samples;Min_cycle;Max_cycle;Signal;HPM_P1;HPM_P2
2022/02/11 00:05:08;;;;;;;;;;;;;;;;;;5046829;28;20385;-63
2022/02/11 00:07:35;;;;;;;;;;;;;;;;;;5046181;28;19924;-63
2022/02/11 00:10:02;;;;;;;;;;;;;;;;;;5040810;28;19933;-63
2022/02/11 00:12:29;;;;;;;;;;;;;;;;;;5040353;28;19947;-64
2022/02/11 00:15:08;;;;;;;;;;;;;;;;;;5047389;28;20020;-64
2022/02/11 00:17:36;;;;;;;;;;;;;;;;;;5042074;28;19978;-64
2022/02/11 00:20:03;;;;;;;;;;;;;;;;;;5047674;28;20020;-64
2022/02/11 00:22:30;;;;;;;;;;;;;;;;;;5049708;28;19932;-64
2022/02/11 00:24:56;;;;;;;;;;;;;;;;;;5044511;28;19931;-64
2022/02/11 00:28:00;;;;;;;;;;;;;;;;;;5042045;28;20390;-63
2022/02/11 00:33:19;;;;;;;;;;;;;;;;;;5039126;28;19929;-64
2022/02/11 00:35:51;;;;;;;;;;;;;;;;;;5041761;28;20025;-63
2022/02/11 00:38:22;;;;;;;;;;;;;;;;;;5044969;28;19935;-64
2022/02/11 00:46:36;;;;;;;;;;;;;;;;;;5044594;28;20075;-64
2022/02/11 01:02:51;;;;;;;;;;;;;;;;;;5042555;28;19919;-63
2022/02/11 01:05:18;;;;;;;;;;;;;;;;;;5039207;28;20017;-64
2022/02/11 01:07:45;;;;;;;;;;;;;;;;;;5037743;28;20351;-64
2022/02/11 01:10:15;;;;;;;;;;;;;;;;;;5042639;28;19932;-64
2022/02/11 01:12:42;;;;;;;;;;;;;;;;;;5045292;28;19929;-64
2022/02/11 01:15:09;;;;;;;;;;;;;;;;;;5043004;28;19925;-63
2022/02/11 01:17:40;;;;;;;;;;;;;;;;;;5040542;28;19925;-63
2022/02/11 01:20:12;;;;;;;;;;;;;;;;;;5044200;28;19932;-64
2022/02/11 01:22:54;;;;;;;;;;;;;;;;;;5046985;28;20292;-63
2022/02/11 01:28:12;;;;;;;;;;;;;;;;;;5031087;28;19921;-64
2022/02/11 01:30:55;;;;;;;;;;;;;;;;;;5044237;28;19960;-64
2022/02/11 01:36:35;;;;;;;;;;;;;;;;;;5006591;28;19972;-63
2022/02/11 01:47:41;;;;;;;;;;;;;;;;;;5029136;28;19921;-66
2022/02/11 01:50:27;;;;;;;;;;;;;;;;;;5061100;22;20116;-64
2022/02/11 01:53:03;;;;;;;;;;;;;;;;;;5064003;28;19920;-65
2022/02/11 01:55:57;;;;;;;;;;;;;;;;;;5067252;28;19947;-64
2022/02/11 02:01:35;;;;;;;;;;;;;;;;;;5067007;28;19920;-63
2022/02/11 02:10:12;;;;;;;;;;;;;;;;;;5067495;28;20314;-63
2022/02/11 02:12:52;;;;;;;;;;;;;;;;;;5066479;28;19931;-63
2022/02/11 02:15:46;;;;;;;;;;;;;;;;;;5066594;28;19943;-64
2022/02/11 02:24:00;;;;;;;;;;;;;;;;;;5070160;28;20318;-64
2022/02/11 02:26:40;;;;;;;;;;;;;;;;;;5067663;28;20392;-64
2022/02/11 02:29:59;;;;;;;;;;;;;;;;;;5063745;28;20293;-64
2022/02/11 02:35:44;;;;;;;;;;;;;;;;;;4971903;28;19926;-64
2022/02/11 02:57:29;;;;;;;;;;;;;;;;;;5070063;28;19922;-63
2022/02/11 03:00:11;;;;;;;;;;;;;;;;;;5066188;28;19970;-63
2022/02/11 03:35:58;;;;;;;;;;;;;;;;;;5071172;28;20042;-63
2022/02/11 03:49:20;;;;;;;;;;;;;;;;;;5068374;28;19934;-63
2022/02/11 03:57:48;;;;;;;;;;;;;;;;;;5072071;28;19935;-64
2022/02/11 04:20:17;;;;;;;;;;;;;;;;;;5068888;28;19962;-64
2022/02/11 04:55:22;;;;;;;;;;;;;;;;;;5068316;28;19927;-63
2022/02/11 05:00:34;;;;;;;;;;;;;;;;;;5072133;28;19927;-63
2022/02/11 05:03:00;;;;;;;;;;;;;;;;;;5072856;28;20301;-64
2022/02/11 05:05:28;;;;;;;;;;;;;;;;;;5068039;28;19971;-64
2022/02/11 05:07:55;;;;;;;;;;;;;;;;;;5067797;28;19959;-63
2022/02/11 05:10:22;;;;;;;;;;;;;;;;;;5068954;28;19924;-63
2022/02/11 05:12:49;;;;;;;;;;;;;;;;;;5073150;28;19929;-64
2022/02/11 05:15:16;;;;;;;;;;;;;;;;;;5072753;28;19971;-64
2022/02/11 05:17:45;;;;;;;;;;;;;;;;;;5068287;28;19956;-64
2022/02/11 05:20:12;;;;;;;;;;;;;;;;;;5070409;28;19924;-62
2022/02/11 05:22:39;;;;;;;;;;;;;;;;;;5072956;28;20015;-63
2022/02/11 05:25:08;;;;;;;;;;;;;;;;;;5074174;28;19928;-63
2022/02/11 05:27:35;;;;;;;;;;;;;;;;;;5069810;28;19932;-63
2022/02/11 05:30:02;;;;;;;;;;;;;;;;;;5075103;28;19930;-64
2022/02/11 05:32:29;;;;;;;;;;;;;;;;;;5073534;28;19932;-65
2022/02/11 05:34:56;;;;;;;;;;;;;;;;;;5066814;28;19943;-64
2022/02/11 05:37:24;;;;;;;;;;;;;;;;;;5074546;28;20040;-63
2022/02/11 05:39:51;;;;;;;;;;;;;;;;;;5074802;28;19947;-64
2022/02/11 05:42:18;;;;;;;;;;;;;;;;;;5069240;28;20360;-64
2022/02/11 05:44:45;;;;;;;;;;;;;;;;;;5072523;28;20358;-63
2022/02/11 05:47:12;;;;;;;;;;;;;;;;;;5071549;28;19969;-64
2022/02/11 05:49:39;;;;;;;;;;;;;;;;;;5069794;28;19946;-64
2022/02/11 05:52:07;;;;;;;;;;;;;;;;;;5072711;28;20205;-64
2022/02/11 05:54:34;;;;;;;;;;;;;;;;;;5074728;28;20475;-64
2022/02/11 05:57:01;;;;;;;;;;;;;;;;;;5069887;28;19934;-64
2022/02/11 05:59:28;;;;;;;;;;;;;;;;;;5076813;28;19977;-64
2022/02/11 06:01:55;;;;;;;;;;;;;;;;;;5064532;28;20012;-64
2022/02/11 06:04:24;;;;;;;;;;;;;;;;;;5072688;28;20023;-64
2022/02/11 06:06:51;;;;;;;;;;;;;;;;;;5067372;28;19985;-64
2022/02/11 06:09:18;;;;;;;;;;;;;;;;;;5071701;28;19933;-63
2022/02/11 06:11:46;;;;;;;;;;;;;;;;;;5068150;28;19925;-63
2022/02/11 06:14:13;;;;;;;;;;;;;;;;;;5069728;28;19924;-64
2022/02/11 06:16:40;;;;;;;;;;;;;;;;;;5066500;28;19925;-63
2022/02/11 06:19:07;;;;;;;;;;;;;;;;;;5068634;28;20472;-64
2022/02/11 06:21:34;;;;;;;;;;;;;;;;;;5068826;28;20491;-64
2022/02/11 06:24:01;;;;;;;;;;;;;;;;;;5071576;28;20364;-63
2022/02/11 06:26:28;;;;;;;;;;;;;;;;;;5073849;28;19924;-64
2022/02/11 06:28:56;;;;;;;;;;;;;;;;;;5069945;28;20294;-64
2022/02/11 06:31:23;;;;;;;;;;;;;;;;;;5060694;28;19935;-63
2022/02/11 06:33:50;;;;;;;;;;;;;;;;;;5070828;28;19971;-64
2022/02/11 06:36:17;;;;;;;;;;;;;;;;;;5067602;28;20928;-64
2022/02/11 06:38:44;;;;;;;;;;;;;;;;;;5074225;28;19935;-63
2022/02/11 06:41:11;;;;;;;;;;;;;;;;;;5073559;28;19924;-63
2022/02/11 06:43:38;;;;;;;;;;;;;;;;;;5069233;28;19925;-63
2022/02/11 06:46:05;;;;;;;;;;;;;;;;;;5070554;28;19936;-64
2022/02/11 06:48:32;;;;;;;;;;;;;;;;;;5067609;28;19933;-64
2022/02/11 06:50:59;;;;;;;;;;;;;;;;;;5070090;28;20416;-63
2022/02/11 06:53:26;;;;;;;;;;;;;;;;;;5071861;28;19924;-63
2022/02/11 06:55:54;;;;;;;;;;;;;;;;;;5037127;28;19928;-64
2022/02/11 06:58:22;;;;;;;;;;;;;;;;;;5059111;28;20012;-63
2022/02/11 07:00:49;;;;;;;;;;;;;;;;;;5064119;28;19929;-64
2022/02/11 07:03:16;;;;;;;;;;;;;;;;;;5069868;28;19928;-63
2022/02/11 07:05:43;;;;;;;;;;;;;;;;;;5063227;28;19924;-64
2022/02/11 07:08:10;;;;;;;;;;;;;;;;;;5064268;28;19940;-64
2022/02/11 07:10:37;;;;;;;;;;;;;;;;;;5063384;28;19939;-63
2022/02/11 07:13:04;;;;;;;;;;;;;;;;;;5065066;28;20346;-63
2022/02/11 07:15:37;;;;;;;;;;;;;;;;;;5065034;28;19925;-64
2022/02/11 07:18:04;;;;;;;;;;;;;;;;;;5064973;28;19975;-64
2022/02/11 07:20:31;;;;;;;;;;;;;;;;;;5065524;28;19924;-64
2022/02/11 07:22:58;;;;;;;;;;;;;;;;;;5063304;28;19929;-63
2022/02/11 07:25:25;;;;;;;;;;;;;;;;;;5064800;28;19925;-64
2022/02/11 07:27:52;;;;;;;;;;;;;;;;;;5065422;28;20027;-64
2022/02/11 07:30:20;;;;;;;;;;;;;;;;;;5065965;28;19924;-63
2022/02/11 07:32:47;;;;;;;;;;;;;;;;;;5063292;28;19940;-64
2022/02/11 07:35:14;;;;;;;;;;;;;;;;;;5067304;28;20017;-64
2022/02/11 07:37:41;;;;;;;;;;;;;;;;;;5062931;28;19932;-63
2022/02/11 07:40:09;;;;;;;;;;;;;;;;;;5058750;28;20024;-64
2022/02/11 07:42:37;;;;;;;;;;;;;;;;;;5066590;28;20015;-65
2022/02/11 07:45:04;;;;;;;;;;;;;;;;;;5066061;28;19925;-64
2022/02/11 07:47:31;;;;;;;;;;;;;;;;;;5064121;28;19974;-62
2022/02/11 07:49:59;;;;;;;;;;;;;;;;;;5066450;28;20376;-63
2022/02/11 07:52:26;;;;;;;;;;;;;;;;;;5093804;22;19939;-67
2022/02/11 07:54:53;;;;;;;;;;;;;;;;;;5084420;28;19928;-67
2022/02/11 07:57:20;;;;;;;;;;;;;;;;;;5072807;28;19928;-66
2022/02/11 07:59:47;;;;;;;;;;;;;;;;;;5082861;28;20376;-66
2022/02/11 08:02:14;;;;;;;;;;;;;;;;;;5082345;28;20125;-68
2022/02/11 08:04:40;;;;;;;;;;;;;;;;;;5082469;28;19930;-66
2022/02/11 08:07:07;;;;;;;;;;;;;;;;;;5074061;28;20421;-66
2022/02/11 08:09:34;;;;;;;;;;;;;;;;;;5081339;28;20275;-66
2022/02/11 08:12:01;;;;;;;;;;;;;;;;;;5082151;28;20404;-66
2022/02/11 08:14:30;;;;;;;;;;;;;;;;;;5079163;28;19971;-66
2022/02/11 08:16:57;;;;;;;;;;;;;;;;;;5083402;28;19932;-66
2022/02/11 08:19:24;;;;;;;;;;;;;;;;;;5081274;28;19925;-66
2022/02/11 08:21:50;;;;;;;;;;;;;;;;;;5079121;28;19929;-66
2022/02/11 08:24:17;;;;;;;;;;;;;;;;;;5080540;28;20341;-66
2022/02/11 08:26:44;;;;;;;;;;;;;;;;;;5079718;28;19935;-68
2022/02/11 08:29:13;;;;;;;;;;;;;;;;;;5081483;28;20386;-65
2022/02/11 08:31:40;;;;;;;;;;;;;;;;;;5077619;28;20023;-66
2022/02/11 08:34:07;;;;;;;;;;;;;;;;;;5079892;28;19931;-65
2022/02/11 08:36:33;;;;;;;;;;;;;;;;;;5081518;28;19931;-65
2022/02/11 08:39:01;;;;;;;;;;;;;;;;;;5079069;28;19936;-66
2022/02/11 08:41:27;;;;;;;;;;;;;;;;;;5078361;28;19928;-66
2022/02/11 08:43:54;;;;;;;;;;;;;;;;;;5079976;28;19925;-66
2022/02/11 08:46:21;;;;;;;;;;;;;;;;;;5083035;28;19928;-67
2022/02/11 08:48:49;;;;;;;;;;;;;;;;;;5080480;28;19932;-67
2022/02/11 08:51:16;;;;;;;;;;;;;;;;;;5075430;28;19932;-67
2022/02/11 08:53:43;;;;;;;;;;;;;;;;;;5079421;28;21754;-66
2022/02/11 08:56:12;;;;;;;;;;;;;;;;;;5078524;28;20359;-66
2022/02/11 08:58:39;;;;;;;;;;;;;;;;;;5078939;28;19924;-67
2022/02/11 09:01:06;;;;;;;;;;;;;;;;;;5080248;28;19931;-64
2022/02/11 09:03:34;;;;;;;;;;;;;;;;;;5077503;28;19925;-65
2022/02/11 09:06:03;;;;;;;;;;;;;;;;;;5078068;28;19943;-68
2022/02/11 09:08:33;;;;;;;;;;;;;;;;;;5077893;28;19970;-67
2022/02/11 09:11:00;;;;;;;;;;;;;;;;;;5072647;28;19928;-67
2022/02/11 09:13:27;;;;;;;;;;;;;;;;;;5074626;28;19938;-69
2022/02/11 09:15:54;;;;;;;;;;;;;;;;;;5078478;28;19968;-70
2022/02/11 09:18:21;;;;;;;;;;;;;;;;;;5082132;28;19924;-70
2022/02/11 09:20:49;;;;;;;;;;;;;;;;;;5077599;28;19928;-71
2022/02/11 09:23:17;;;;;;;;;;;;;;;;;;5073147;28;20406;-73
2022/02/11 09:25:44;;;;;;;;;;;;;;;;;;5079806;28;19935;-73
2022/02/11 09:28:11;;;;;;;;;;;;;;;;;;5081235;28;19931;-73
2022/02/11 09:30:38;;;;;;;;;;;;;;;;;;5080531;28;19935;-73
2022/02/11 09:33:06;;;;;;;;;;;;;;;;;;5077524;28;19970;-73
2022/02/11 09:35:32;;;;;;;;;;;;;;;;;;5080507;28;19931;-73
2022/02/11 09:38:00;;;;;;;;;;;;;;;;;;5082814;28;19931;-73
2022/02/11 09:40:27;;;;;;;;;;;;;;;;;;5082471;28;19974;-73
2022/02/11 09:42:54;;;;;;;;;;;;;;;;;;5082311;28;19946;-73
2022/02/11 09:45:21;;;;;;;;;;;;;;;;;;5082999;28;19924;-74
2022/02/11 09:47:49;;;;;;;;;;;;;;;;;;5081316;28;19978;-73
2022/02/11 09:50:18;;;;;;;;;;;;;;;;;;5080469;28;20046;-73
2022/02/11 09:52:44;;;;;;;;;;;;;;;;;;5081018;28;19924;-73
2022/02/11 09:57:56;;;;;;;;;;;;;;;;;;5086915;28;20298;-73
2022/02/11 10:00:25;;;;;;;;;;;;;;;;;;5083563;28;19931;-73
2022/02/11 10:02:52;;;;;;;;;;;;;;;;;;5085843;28;19997;-73
2022/02/11 10:05:19;;;;;;;;;;;;;;;;;;5086944;28;19925;-73
2022/02/11 10:07:46;;;;;;;;;;;;;;;;;;5083386;28;19924;-73
2022/02/11 10:10:17;;;;;;;;;;;;;;;;;;5086247;28;20015;-73
2022/02/11 10:12:44;;;;;;;;;;;;;;;;;;5084930;28;19925;-73
2022/02/11 10:15:11;;;;;;;;;;;;;;;;;;5088593;28;19946;-73
2022/02/11 10:17:37;;;;;;;;;;;;;;;;;;5084153;28;19928;-73
2022/02/11 10:20:05;;;;;;;;;;;;;;;;;;5083081;28;19928;-74
2022/02/11 10:22:32;;;;;;;;;;;;;;;;;;5084174;28;20390;-74
2022/02/11 10:24:58;;;;;;;;;;;;;;;;;;5081927;28;19946;-74
2022/02/11 10:27:25;;;;;;;;;;;;;;;;;;5083268;28;19970;-74
2022/02/11 10:29:52;;;;;;;;;;;;;;;;;;5082037;28;19928;-74
2022/02/11 10:32:19;;;;;;;;;;;;;;;;;;5085832;28;20007;-74
2022/02/11 10:34:48;;;;;;;;;;;;;;;;;;5084744;28;20266;-74
2022/02/11 10:37:16;;;;;;;;;;;;;;;;;;5087270;28;20287;-74
2022/02/11 10:39:43;;;;;;;;;;;;;;;;;;5083338;28;19924;-74
2022/02/11 10:42:12;;;;;;;;;;;;;;;;;;5083206;28;20360;-74
2022/02/11 10:44:39;;;;;;;;;;;;;;;;;;5082893;28;19952;-73
2022/02/11 10:47:07;;;;;;;;;;;;;;;;;;5082074;28;19932;-74
2022/02/11 10:49:34;;;;;;;;;;;;;;;;;;5083062;28;20029;-73
2022/02/11 10:52:01;;;;;;;;;;;;;;;;;;5088237;28;20290;-73
2022/02/11 10:54:28;;;;;;;;;;;;;;;;;;5085099;28;19924;-73
2022/02/11 10:56:55;;;;;;;;;;;;;;;;;;5083865;28;20290;-72
2022/02/11 10:59:22;;;;;;;;;;;;;;;;;;5083022;28;20061;-73
2022/02/11 11:01:49;;;;;;;;;;;;;;;;;;5081394;28;19982;-73
2022/02/11 11:04:17;;;;;;;;;;;;;;;;;;5085660;28;19931;-73
2022/02/11 11:06:44;;;;;;;;;;;;;;;;;;5084464;28;19924;-74
2022/02/11 11:09:14;;;;;;;;;;;;;;;;;;5083958;28;20364;-74
2022/02/11 11:11:43;;;;;;;;;;;;;;;;;;5082911;28;20263;-73
2022/02/11 11:14:10;;;;;;;;;;;;;;;;;;5085167;28;19932;-73
2022/02/11 11:16:36;;;;;;;;;;;;;;;;;;5082962;28;19939;-73
2022/02/11 11:19:03;;;;;;;;;;;;;;;;;;5083390;28;19928;-73
2022/02/11 11:21:31;;;;;;;;;;;;;;;;;;5082533;28;20006;-73
2022/02/11 11:23:58;;;;;;;;;;;;;;;;;;5076858;28;20363;-73
2022/02/11 11:26:25;;;;;;;;;;;;;;;;;;5084119;28;20342;-73
2022/02/11 11:28:52;;;;;;;;;;;;;;;;;;5084256;28;19924;-73
2022/02/11 11:31:19;;;;;;;;;;;;;;;;;;5080964;28;19931;-73
2022/02/11 11:33:46;;;;;;;;;;;;;;;;;;5083139;28;19931;-74
2022/02/11 11:36:13;;;;;;;;;;;;;;;;;;5081354;28;19933;-72
2022/02/11 11:38:41;;;;;;;;;;;;;;;;;;5084128;28;19928;-77
2022/02/11 11:41:09;;;;;;;;;;;;;;;;;;5084504;28;20408;-78
2022/02/11 11:43:36;;;;;;;;;;;;;;;;;;5084320;28;20386;-77
2022/02/11 11:46:03;;;;;;;;;;;;;;;;;;5084532;28;19975;-79
2022/02/11 11:48:30;;;;;;;;;;;;;;;;;;5082702;28;19925;-77
2022/02/11 11:50:57;;;;;;;;;;;;;;;;;;5083169;28;19928;-74
2022/02/11 11:53:25;;;;;;;;;;;;;;;;;;5084560;28;20404;-75
2022/02/11 11:55:52;;;;;;;;;;;;;;;;;;5086853;28;20011;-76
2022/02/11 11:58:19;;;;;;;;;;;;;;;;;;5081666;28;20147;-76
2022/02/11 12:00:46;;;;;;;;;;;;;;;;;;5081398;28;19931;-77
2022/02/11 12:03:13;;;;;;;;;;;;;;;;;;5083007;28;19925;-76
2022/02/11 12:05:40;;;;;;;;;;;;;;;;;;5084719;28;20306;-77
2022/02/11 12:08:07;;;;;;;;;;;;;;;;;;5082271;28;19935;-77
2022/02/11 12:10:34;;;;;;;;;;;;;;;;;;5084136;28;19924;-77
2022/02/11 12:13:01;;;;;;;;;;;;;;;;;;5080048;28;19924;-77
2022/02/11 12:15:28;;;;;;;;;;;;;;;;;;5084073;28;19928;-77
2022/02/11 12:17:57;;;;;;;;;;;;;;;;;;5084048;28;19928;-75
2022/02/11 12:20:23;;;;;;;;;;;;;;;;;;5082331;28;19985;-74
2022/02/11 12:27:20;;;;;;;;;;;;;;;;;;5085585;28;19931;-75
2022/02/11 12:28:23;;;;;;;;;;;;;;;;;;5079663;28;19923;-76
2022/02/11 12:30:49;;;;;;;;;;;;;;;;;;5083220;28;19932;-75
2022/02/11 12:33:16;;;;;;;;;;;;;;;;;;5078011;28;20400;-76
2022/02/11 12:35:47;;;;;;;;;;;;;;;;;;5081495;28;19924;-75
2022/02/11 12:38:14;;;;;;;;;;;;;;;;;;5080490;28;19924;-75
2022/02/11 12:40:44;;;;;;;;;;;;;;;;;;5079471;28;20006;-76
2022/02/11 12:43:11;;;;;;;;;;;;;;;;;;5082015;28;19928;-76
2022/02/11 12:45:38;;;;;;;;;;;;;;;;;;5083109;28;20362;-77
2022/02/11 12:48:05;;;;;;;;;;;;;;;;;;5086865;28;19924;-76
2022/02/11 12:50:32;;;;;;;;;;;;;;;;;;5082421;28;19925;-77
2022/02/11 12:52:58;;;;;;;;;;;;;;;;;;5082528;28;19939;-76
2022/02/11 12:55:25;;;;;;;;;;;;;;;;;;5083428;28;19928;-77
2022/02/11 12:57:52;;;;;;;;;;;;;;;;;;5084767;28;19928;-77
2022/02/11 13:00:22;;;;;;;;;;;;;;;;;;5082623;28;19970;-77
2022/02/11 13:02:50;;;;;;;;;;;;;;;;;;5080056;28;19955;-77
2022/02/11 13:05:17;;;;;;;;;;;;;;;;;;5079620;28;20386;-77
2022/02/11 13:07:45;;;;;;;;;;;;;;;;;;5081211;28;20408;-75
2022/02/11 13:10:12;;;;;;;;;;;;;;;;;;5084276;28;20030;-76
2022/02/11 13:12:39;;;;;;;;;;;;;;;;;;5080940;28;19932;-77
2022/02/11 13:15:05;;;;;;;;;;;;;;;;;;5084493;28;19933;-76
2022/02/11 13:17:32;;;;;;;;;;;;;;;;;;5083420;28;20396;-76
2022/02/11 13:19:59;;;;;;;;;;;;;;;;;;5080249;28;19928;-76
2022/02/11 13:22:26;;;;;;;;;;;;;;;;;;5083403;28;19925;-76
2022/02/11 13:24:53;;;;;;;;;;;;;;;;;;5082855;28;19931;-75
2022/02/11 13:27:20;;;;;;;;;;;;;;;;;;5076600;28;20373;-74
2022/02/11 13:29:47;;;;;;;;;;;;;;;;;;5074659;28;19932;-73
2022/02/11 13:32:14;;;;;;;;;;;;;;;;;;5081639;28;20411;-73
2022/02/11 13:34:41;;;;;;;;;;;;;;;;;;5080253;28;19932;-73
2022/02/11 13:37:08;;;;;;;;;;;;;;;;;;5082413;28;19928;-73
2022/02/11 13:39:35;;;;;;;;;;;;;;;;;;5074007;28;19927;-73
2022/02/11 13:42:02;;;;;;;;;;;;;;;;;;5087560;28;20352;-73
2022/02/11 13:44:30;;;;;;;;;;;;;;;;;;5086242;28;19928;-73
2022/02/11 13:46:57;;;;;;;;;;;;;;;;;;5084880;28;19924;-73
2022/02/11 13:49:24;;;;;;;;;;;;;;;;;;5078424;28;19931;-72
2022/02/11 13:53:01;;;;;;;;;;;;;;;;;;5090250;22;20085;-70
2022/02/11 13:54:38;;;;;;;;;;;;;;;;;;5065503;28;20329;-71
2022/02/11 13:57:05;;;;;;;;;;;;;;;;;;5067471;28;19936;-71
2022/02/11 13:59:32;;;;;;;;;;;;;;;;;;5067769;28;20362;-71
2022/02/11 14:01:59;;;;;;;;;;;;;;;;;;5067655;28;19946;-71
2022/02/11 14:04:27;;;;;;;;;;;;;;;;;;5066222;28;19931;-70
2022/02/11 14:06:54;;;;;;;;;;;;;;;;;;5065431;28;20382;-69
2022/02/11 14:09:21;;;;;;;;;;;;;;;;;;5062813;28;19925;-70
2022/02/11 14:11:48;;;;;;;;;;;;;;;;;;5064760;28;19924;-70
2022/02/11 14:14:17;;;;;;;;;;;;;;;;;;5063951;28;19936;-70
2022/02/11 14:16:44;;;;;;;;;;;;;;;;;;5064905;28;20389;-71
2022/02/11 14:19:11;;;;;;;;;;;;;;;;;;5064516;28;19924;-71
2022/02/11 14:21:38;;;;;;;;;;;;;;;;;;5064494;28;21432;-71
2022/02/11 14:24:06;;;;;;;;;;;;;;;;;;5064210;28;19925;-72
2022/02/11 14:26:33;;;;;;;;;;;;;;;;;;5061760;28;19932;-73
2022/02/11 14:29:00;;;;;;;;;;;;;;;;;;5056910;28;20303;-71
2022/02/11 14:31:27;;;;;;;;;;;;;;;;;;5060471;28;19931;-71
2022/02/11 14:33:54;;;;;;;;;;;;;;;;;;5065230;28;19924;-71
2022/02/11 14:36:21;;;;;;;;;;;;;;;;;;5064514;28;19971;-71
2022/02/11 14:38:48;;;;;;;;;;;;;;;;;;5066387;28;19924;-71
2022/02/11 14:44:00;;;;;;;;;;;;;;;;;;5064591;28;20268;-71
2022/02/11 14:46:27;;;;;;;;;;;;;;;;;;5068470;28;20314;-71
2022/02/11 14:48:54;;;;;;;;;;;;;;;;;;5057258;28;19933;-70
2022/02/11 14:51:21;;;;;;;;;;;;;;;;;;5062756;28;19924;-71
2022/02/11 14:53:48;;;;;;;;;;;;;;;;;;5069457;28;20273;-70
2022/02/11 14:56:15;;;;;;;;;;;;;;;;;;5063896;28;19925;-70
2022/02/11 14:58:43;;;;;;;;;;;;;;;;;;5056289;28;19951;-69
2022/02/11 15:01:10;;;;;;;;;;;;;;;;;;5063870;28;19986;-70
2022/02/11 15:03:38;;;;;;;;;;;;;;;;;;5069558;28;20378;-69
2022/02/11 15:06:05;;;;;;;;;;;;;;;;;;5068732;28;19924;-70
2022/02/11 15:08:32;;;;;;;;;;;;;;;;;;5071520;28;20429;-70
2022/02/11 15:10:59;;;;;;;;;;;;;;;;;;5070233;28;19937;-70
2022/02/11 15:13:26;;;;;;;;;;;;;;;;;;5061135;28;20401;-69
2022/02/11 15:15:53;;;;;;;;;;;;;;;;;;5064232;28;19924;-70
2022/02/11 15:18:20;;;;;;;;;;;;;;;;;;5060308;28;20305;-69
2022/02/11 15:20:47;;;;;;;;;;;;;;;;;;5063946;28;20008;-71
2022/02/11 15:23:14;;;;;;;;;;;;;;;;;;5068230;28;19931;-70
2022/02/11 15:25:41;;;;;;;;;;;;;;;;;;5069207;28;20027;-69
2022/02/11 15:28:08;;;;;;;;;;;;;;;;;;5062643;28;19946;-69
2022/02/11 15:30:35;;;;;;;;;;;;;;;;;;5062866;28;19925;-70
2022/02/11 15:33:02;;;;;;;;;;;;;;;;;;5066937;28;19924;-70
2022/02/11 15:35:29;;;;;;;;;;;;;;;;;;5064449;28;20301;-69
2022/02/11 15:37:56;;;;;;;;;;;;;;;;;;5067380;28;19931;-70
2022/02/11 15:40:27;;;;;;;;;;;;;;;;;;5069333;28;20183;-70
2022/02/11 15:42:54;;;;;;;;;;;;;;;;;;5061035;28;19925;-70
2022/02/11 15:45:20;;;;;;;;;;;;;;;;;;5062268;28;19935;-69
2022/02/11 15:47:47;;;;;;;;;;;;;;;;;;5060163;28;20378;-69
2022/02/11 15:50:14;;;;;;;;;;;;;;;;;;5058620;28;20397;-69
2022/02/11 15:52:42;;;;;;;;;;;;;;;;;;5063878;28;19925;-70
2022/02/11 15:55:10;;;;;;;;;;;;;;;;;;5059048;28;19932;-70
2022/02/11 15:57:37;;;;;;;;;;;;;;;;;;5062120;28;19924;-70
2022/02/11 16:00:04;;;;;;;;;;;;;;;;;;5065759;28;19939;-70
2022/02/11 16:02:31;;;;;;;;;;;;;;;;;;5061764;28;19925;-70
2022/02/11 16:04:58;;;;;;;;;;;;;;;;;;5053023;28;19936;-70
2022/02/11 16:07:27;;;;;;;;;;;;;;;;;;5063167;28;19924;-70
2022/02/11 16:09:54;;;;;;;;;;;;;;;;;;5063090;28;19929;-71
2022/02/11 16:12:21;;;;;;;;;;;;;;;;;;5064789;28;19932;-71
2022/02/11 16:14:48;;;;;;;;;;;;;;;;;;5060209;28;19939;-70
2022/02/11 16:17:15;;;;;;;;;;;;;;;;;;5062974;28;19935;-71
2022/02/11 16:19:42;;;;;;;;;;;;;;;;;;5063797;28;19931;-71
2022/02/11 16:22:09;;;;;;;;;;;;;;;;;;5063228;28;19932;-70
2022/02/11 16:24:37;;;;;;;;;;;;;;;;;;5064331;28;20476;-69
2022/02/11 16:27:04;;;;;;;;;;;;;;;;;;5062360;28;20386;-72
2022/02/11 16:29:33;;;;;;;;;;;;;;;;;;5064485;28;20390;-71
2022/02/11 16:32:00;;;;;;;;;;;;;;;;;;5062086;28;19936;-70
2022/02/11 16:34:27;;;;;;;;;;;;;;;;;;5062355;28;20451;-70
2022/02/11 16:36:54;;;;;;;;;;;;;;;;;;5060147;28;20007;-71
2022/02/11 16:39:21;;;;;;;;;;;;;;;;;;5062277;28;20366;-70
2022/02/11 16:41:48;;;;;;;;;;;;;;;;;;5061158;28;20382;-71
2022/02/11 16:44:17;;;;;;;;;;;;;;;;;;5061196;28;19933;-70
2022/02/11 16:46:44;;;;;;;;;;;;;;;;;;5063275;28;19924;-70
2022/02/11 16:49:13;;;;;;;;;;;;;;;;;;5063461;28;20024;-71
2022/02/11 16:51:40;;;;;;;;;;;;;;;;;;5065126;28;19928;-71
2022/02/11 16:54:07;;;;;;;;;;;;;;;;;;5063987;28;19932;-72
2022/02/11 16:56:34;;;;;;;;;;;;;;;;;;5064350;28;20263;-72
2022/02/11 16:59:01;;;;;;;;;;;;;;;;;;5064649;28;19931;-71
2022/02/11 17:01:28;;;;;;;;;;;;;;;;;;5061576;28;19932;-71
2022/02/11 17:03:55;;;;;;;;;;;;;;;;;;5064166;28;20027;-70
2022/02/11 17:06:22;;;;;;;;;;;;;;;;;;5059781;28;19932;-70
2022/02/11 17:08:48;;;;;;;;;;;;;;;;;;5060994;28;19928;-71
2022/02/11 17:11:15;;;;;;;;;;;;;;;;;;5063643;28;19925;-72
2022/02/11 17:13:42;;;;;;;;;;;;;;;;;;5062988;28;19932;-72
2022/02/11 17:16:09;;;;;;;;;;;;;;;;;;5062691;28;19935;-71
2022/02/11 17:18:36;;;;;;;;;;;;;;;;;;5062435;28;20352;-70
2022/02/11 17:21:03;;;;;;;;;;;;;;;;;;5063351;28;19931;-70
2022/02/11 17:23:30;;;;;;;;;;;;;;;;;;5063905;28;19928;-72
2022/02/11 17:25:57;;;;;;;;;;;;;;;;;;5063267;28;20402;-71
2022/02/11 17:28:24;;;;;;;;;;;;;;;;;;5061351;28;19931;-70
2022/02/11 17:30:51;;;;;;;;;;;;;;;;;;5059288;28;19935;-71
2022/02/11 17:33:18;;;;;;;;;;;;;;;;;;5059565;28;19930;-72
2022/02/11 17:35:45;;;;;;;;;;;;;;;;;;5061366;28;19925;-71
2022/02/11 17:38:12;;;;;;;;;;;;;;;;;;5063025;28;19924;-71
2022/02/11 17:40:39;;;;;;;;;;;;;;;;;;5062463;28;19925;-73
2022/02/11 17:43:05;;;;;;;;;;;;;;;;;;5063261;28;19932;-70
2022/02/11 17:45:33;;;;;;;;;;;;;;;;;;5062650;28;19925;-72
2022/02/11 17:47:59;;;;;;;;;;;;;;;;;;5063933;28;19970;-70
2022/02/11 17:50:26;;;;;;;;;;;;;;;;;;5061247;28;19925;-70
2022/02/11 17:52:53;;;;;;;;;;;;;;;;;;5065439;28;20376;-70
2022/02/11 17:55:20;;;;;;;;;;;;;;;;;;5064590;28;19928;-70
2022/02/11 17:57:47;;;;;;;;;;;;;;;;;;5062500;28;20352;-70
2022/02/11 18:00:14;;;;;;;;;;;;;;;;;;5062580;28;19943;-70
2022/02/11 18:02:41;;;;;;;;;;;;;;;;;;5063834;28;20336;-72
2022/02/11 18:05:08;;;;;;;;;;;;;;;;;;5060406;28;20310;-70
2022/02/11 18:07:38;;;;;;;;;;;;;;;;;;5064811;28;20409;-70
2022/02/11 18:10:05;;;;;;;;;;;;;;;;;;5064094;28;19928;-70
2022/02/11 18:12:32;;;;;;;;;;;;;;;;;;5059887;28;19936;-71
2022/02/11 18:14:59;;;;;;;;;;;;;;;;;;5062150;28;20414;-71
2022/02/11 18:17:29;;;;;;;;;;;;;;;;;;5064126;28;19925;-71
2022/02/11 18:19:57;;;;;;;;;;;;;;;;;;5062439;28;19930;-72
2022/02/11 18:22:24;;;;;;;;;;;;;;;;;;5069110;28;20356;-70
2022/02/11 18:24:51;;;;;;;;;;;;;;;;;;5066108;28;19935;-71
2022/02/11 18:27:18;;;;;;;;;;;;;;;;;;5065777;28;19932;-71
2022/02/11 18:29:45;;;;;;;;;;;;;;;;;;5064181;28;19924;-71
2022/02/11 18:32:12;;;;;;;;;;;;;;;;;;5062911;28;19928;-73
2022/02/11 18:34:39;;;;;;;;;;;;;;;;;;5063592;28;19924;-72
2022/02/11 18:37:06;;;;;;;;;;;;;;;;;;5064531;28;19928;-73
2022/02/11 18:39:33;;;;;;;;;;;;;;;;;;5062319;28;19979;-72
2022/02/11 18:42:00;;;;;;;;;;;;;;;;;;5068168;28;19928;-71
2022/02/11 18:44:27;;;;;;;;;;;;;;;;;;5066633;28;19935;-72
2022/02/11 18:46:54;;;;;;;;;;;;;;;;;;5067550;28;19944;-71
2022/02/11 18:49:21;;;;;;;;;;;;;;;;;;5064222;28;20298;-72
2022/02/11 18:51:49;;;;;;;;;;;;;;;;;;5064821;28;19928;-72
2022/02/11 18:54:16;;;;;;;;;;;;;;;;;;5066017;28;20346;-73
2022/02/11 18:56:48;;;;;;;;;;;;;;;;;;5066756;28;20275;-71
2022/02/11 19:01:59;;;;;;;;;;;;;;;;;;5063690;28;20335;-72
2022/02/11 19:04:26;;;;;;;;;;;;;;;;;;5066847;28;20412;-73
2022/02/11 19:06:53;;;;;;;;;;;;;;;;;;5067433;28;20818;-73
2022/02/11 19:09:20;;;;;;;;;;;;;;;;;;5062545;28;20007;-71
2022/02/11 19:11:47;;;;;;;;;;;;;;;;;;5064203;28;19925;-71
2022/02/11 19:14:16;;;;;;;;;;;;;;;;;;5061943;28;19931;-71
2022/02/11 19:16:43;;;;;;;;;;;;;;;;;;5064889;28;20314;-71
2022/02/11 19:19:11;;;;;;;;;;;;;;;;;;5066160;28;20302;-70
2022/02/11 19:21:38;;;;;;;;;;;;;;;;;;5065372;28;20025;-70
2022/02/11 19:24:05;;;;;;;;;;;;;;;;;;5065300;28;19925;-71
2022/02/11 19:26:32;;;;;;;;;;;;;;;;;;5066147;28;19935;-70
2022/02/11 19:28:59;;;;;;;;;;;;;;;;;;5063508;28;19982;-70
2022/02/11 19:31:26;;;;;;;;;;;;;;;;;;5064879;28;20252;-71
2022/02/11 19:33:53;;;;;;;;;;;;;;;;;;5062055;28;19936;-71
2022/02/11 19:36:20;;;;;;;;;;;;;;;;;;5064248;28;19928;-70
2022/02/11 19:38:47;;;;;;;;;;;;;;;;;;5060938;28;19928;-71
2022/02/11 19:41:14;;;;;;;;;;;;;;;;;;5060773;28;19931;-71
2022/02/11 19:43:41;;;;;;;;;;;;;;;;;;5064990;28;19924;-71
2022/02/11 19:46:10;;;;;;;;;;;;;;;;;;5061912;28;19924;-70
2022/02/11 19:48:38;;;;;;;;;;;;;;;;;;5063788;28;20321;-70
2022/02/11 19:51:07;;;;;;;;;;;;;;;;;;5065017;28;19924;-71
2022/02/11 19:53:35;;;;;;;;;;;;;;;;;;5066144;28;19924;-71
2022/02/11 19:56:02;;;;;;;;;;;;;;;;;;5063720;28;19935;-71
2022/02/11 19:58:29;;;;;;;;;;;;;;;;;;5060094;28;19933;-70
2022/02/11 20:00:57;;;;;;;;;;;;;;;;;;5063950;28;19924;-70
2022/02/11 20:03:24;;;;;;;;;;;;;;;;;;5064587;28;19932;-71
2022/02/11 20:05:52;;;;;;;;;;;;;;;;;;5066545;28;19931;-71